This is the latest recevied weather packets stored in our database for station/object CA3PBK-13. If no packets are shown the sender has not sent any weather packets the latest 1 day(s).
| Time | Temp. | Humidity | Pressure | Rain* | Wind** | Luminosity | Snow |
|---|---|---|---|---|---|---|---|
| 1778021111 | 18.33° C | 99% | 926.1 hPa | 0 mm | 0.45 m/s, 225° | - | - |
| 1778020989 | 18.33° C | 99% | 926.1 hPa | 0 mm | 0.45 m/s, 135° | - | - |
| 1778020868 | 18.33° C | 99% | 926.1 hPa | 0 mm | 0.45 m/s, 225° | - | - |
| 1778020749 | 18.33° C | 99% | 926.1 hPa | 0 mm | 0.45 m/s, 180° | - | - |
| 1778020629 | 18.89° C | 99% | 926.1 hPa | 0 mm | 0.45 m/s, 315° | - | - |
| 1778020510 | 18.89° C | 99% | 926.1 hPa | 0 mm | 0.45 m/s, 225° | - | - |
| 1778020388 | 18.89° C | 99% | 926.1 hPa | 0 mm | 0 m/s | - | - |
| 1778020268 | 18.89° C | 99% | 926.2 hPa | 0 mm | 0.45 m/s, 225° | - | - |
| 1778020149 | 19.44° C | 99% | 926.2 hPa | 0 mm | 0 m/s | - | - |
| 1778020029 | 19.44° C | 99% | 926.2 hPa | 0 mm | 0 m/s | - | - |
| 1778019910 | 19.44° C | 99% | 926.2 hPa | 0 mm | 0 m/s | - | - |
| 1778019788 | 19.44° C | 99% | 926.3 hPa | 0 mm | 0 m/s | - | - |
| 1778019669 | 19.44° C | 99% | 926.3 hPa | 0 mm | 0 m/s | - | - |
| 1778019548 | 19.44° C | 99% | 926.2 hPa | 0 mm | 0 m/s | - | - |
| 1778019429 | 18.89° C | 99% | 926.2 hPa | 0 mm | 0 m/s | - | - |
| 1778019310 | 18.89° C | 99% | 926.1 hPa | 0 mm | 0.45 m/s, 180° | - | - |
| 1778019189 | 18.89° C | 99% | 926.1 hPa | 0 mm | 0.89 m/s, 180° | - | - |
| 1778019068 | 18.89° C | 99% | 926.1 hPa | 0 mm | 0.89 m/s, 180° | - | - |
| 1778018949 | 18.89° C | 99% | 926.1 hPa | 0 mm | 0.89 m/s, 180° | - | - |
| 1778018828 | 18.33° C | 99% | 926.1 hPa | 0 mm | 0.45 m/s, 225° | - | - |
| 1777995365 | 25.56° C | 99% | 926.6 hPa | 0 mm | 0 m/s | - | - |
| 1777995244 | 25.56° C | 99% | 926.5 hPa | 0 mm | 0 m/s | - | - |
| 1777995124 | 25° C | 99% | 926.5 hPa | 0 mm | 0 m/s | - | - |
| 1777995004 | 24.44° C | 99% | 926.7 hPa | 0 mm | 0 m/s | - | - |
| 1777994884 | 25° C | 99% | 926.7 hPa | 0 mm | 0 m/s | - | - |
* Rain latest hour (hover to see other rain measurements)
** Current wind speed in m/s (hover to see current wind gust speed)